Terminal Aerodrome Forecast
Issued by NWS Portland, OR

Home | Current Version | Previous Version | Text Only | Print | Product List | Glossary On
Versions: 1 2 3 4 5 6 7 8 9 10 11 12 13
000
FTUS46 KPQR 241724 CCA
TAFTTD
TAF COR
KTTD 241724Z 2418/2518 VRB05KT P6SM SKC
     FM241900 09015G25KT P6SM SKC
     FM250500 08011KT P6SM SKC=

USA.gov is the U.S. government's official web portal to all federal, state and local government web resources and services.